Погода Дубровскийна неделю

Ростовская область, Россия

24 - 30 мая
  • 24мая
    Сегодня
    +6°
    +22°
    Ясно и безоблачно
    ВремяПогодаТемператураВлажностьДавлениеВетер, м/сВероятность осадков
    00:00Ясно и безоблачно+16°C62 %758 мм1.5 м/с2 %
    03:00Ясно и безоблачно+13°C42 %760 мм3.0 м/с2 %
    06:00Ясно и безоблачно+11°C36 %761 мм1.1 м/с2 %
    09:00Ясно и безоблачно+15°C27 %762 мм3.5 м/с2 %
    12:00Ясно и безоблачно+19°C18 %763 мм3.3 м/с2 %
    15:00Ясно и безоблачно+22°C18 %762 мм3.0 м/с2 %
    18:00Ясно и безоблачно+21°C18 %762 мм2.0 м/с2 %
    21:00Ясно и безоблачно+14°C24 %763 мм0.8 м/с2 %
  • 25мая
    Суббота
    +8°
    +23°
    Ясно и безоблачно
    ВремяПогодаТемператураВлажностьДавлениеВетер, м/сВероятность осадков
    00:00Ясно и безоблачно+10°C30 %764 мм1.3 м/с2 %
    03:00Ясно и безоблачно+7°C35 %765 мм0.0 м/с2 %
    06:00Ясно и безоблачно+9°C40 %765 мм0.5 м/с2 %
    09:00Ясно и безоблачно+15°C26 %765 мм2.8 м/с2 %
    12:00Ясно и безоблачно+19°C22 %764 мм2.8 м/с2 %
    15:00Ясно и безоблачно+22°C21 %763 мм2.6 м/с2 %
    18:00Ясно и безоблачно+22°C23 %762 мм1.6 м/с2 %
    21:00Ясно и безоблачно+14°C34 %762 мм0.3 м/с2 %
  • 26мая
    Воскресенье
    +9°
    +25°
    Ясно и безоблачно
    ВремяПогодаТемператураВлажностьДавлениеВетер, м/сВероятность осадков
    00:00Облачно с прояснениями+11°C40 %761 мм0.6 м/с2 %
    03:00Пасмурно, сплошная облачность+10°C41 %761 мм0.0 м/с2 %
    06:00Облачно с прояснениями+11°C44 %761 мм0.3 м/с2 %
    09:00Небольшая облачность+17°C31 %760 мм2.0 м/с2 %
    12:00Облачно с прояснениями+22°C24 %759 мм2.1 м/с2 %
    15:00Ясно и безоблачно+25°C21 %758 мм2.2 м/с2 %
    18:00Ясно и безоблачно+24°C22 %757 мм1.2 м/с2 %
    21:00Ясно и безоблачно+16°C37 %758 мм0.2 м/с2 %
  • 27мая
    Понедельник
    +12°
    +29°
    Ясно и безоблачно
    ВремяПогодаТемператураВлажностьДавлениеВетер, м/сВероятность осадков
    00:00Практически безоблачно+13°C49 %757 мм0.5 м/с2 %
    03:00Ясно и безоблачно+10°C57 %757 мм0.0 м/с2 %
    06:00Ясно и безоблачно+12°C53 %758 мм0.1 м/с2 %
    09:00Ясно и безоблачно+21°C30 %758 мм1.9 м/с2 %
    12:00Ясно и безоблачно+26°C24 %759 мм1.9 м/с2 %
    15:00Ясно и безоблачно+28°C23 %758 мм1.9 м/с2 %
    18:00Облачно с прояснениями+26°C30 %758 мм1.5 м/с3 %
    21:00Ясно и безоблачно+20°C45 %759 мм1.2 м/с2 %
  • 28мая
    Вторник
    +8°
    +26°
    Ясно и безоблачно
    ВремяПогодаТемператураВлажностьДавлениеВетер, м/сВероятность осадков
    00:00Практически безоблачно+16°C41 %760 мм1.8 м/с2 %
    03:00Практически безоблачно+14°C30 %760 мм0.4 м/с2 %
    06:00Практически безоблачно+13°C35 %761 мм0.8 м/с2 %
    09:00Практически безоблачно+18°C31 %761 мм2.8 м/с2 %
    12:00Ясно и безоблачно+23°C28 %761 мм2.8 м/с2 %
    15:00Ясно и безоблачно+25°C19 %760 мм2.6 м/с2 %
    18:00Ясно и безоблачно+24°C19 %759 мм1.6 м/с2 %
    21:00Ясно и безоблачно+16°C28 %760 мм0.6 м/с2 %
Мы используем cookies
Соглашаюсь